Terminal Aerodrome Forecast
Issued by NWS Wichita, KS

Home | Current Version | Previous Version | Graphics & Text | Print | Product List | Glossary On
Versions: 1 2 3 4 5 6 7 8 9 10 11 12
000
FTUS43 KICT 201735
TAFICT
TAF
KICT 201735Z 2018/2118 14015G22KT P6SM BKN250
     FM210300 11010KT P6SM VCSH OVC100
     FM210600 10008KT P6SM -SHRA OVC090
     FM210900 10010KT 6SM SHRA OVC025
     FM211100 10012KT 5SM SHRA OVC007=

USA.gov is the U.S. government's official web portal to all federal, state and local government web resources and services.